Time;durP1;ratioP1;P1;durP2;ratioP2;P2;SDS_P1;SDS_P2;PMS_P1;PMS_P2;Temp;Humidity;BMP_temperature;BMP_pressure;BME280_temperature;BME280_humidity;BME280_pressure;Samples;Min_cycle;Max_cycle;Signal;HPM_P1;HPM_P2
2021/11/06 00:00:42;;;;;;;9.43;2.53;;;;;;;;;;4969503;28;20668;-72
2021/11/06 00:03:08;;;;;;;4.53;1.70;;;;;;;;;;4919171;29;20236;-72
2021/11/06 00:05:35;;;;;;;4.40;2.57;;;;;;;;;;4935575;29;20246;-72
2021/11/06 00:08:03;;;;;;;8.27;1.97;;;;;;;;;;4966143;28;20226;-71
2021/11/06 00:10:30;;;;;;;6.97;2.03;;;;;;;;;;4934879;28;20268;-72
2021/11/06 00:12:58;;;;;;;5.37;1.93;;;;;;;;;;4966481;28;20599;-72
2021/11/06 00:15:26;;;;;;;10.80;2.00;;;;;;;;;;4951073;28;20223;-72
2021/11/06 00:17:52;;;;;;;5.70;1.83;;;;;;;;;;4965304;28;20218;-72
2021/11/06 00:20:17;;;;;;;3.13;1.60;;;;;;;;;;4984479;28;20297;-72
2021/11/06 00:22:43;;;;;;;5.53;2.00;;;;;;;;;;4952398;28;20225;-71
2021/11/06 00:25:10;;;;;;;6.10;2.13;;;;;;;;;;4980151;28;20240;-73
2021/11/06 00:27:36;;;;;;;8.27;2.73;;;;;;;;;;4964447;28;20608;-73
2021/11/06 00:30:06;;;;;;;7.40;2.73;;;;;;;;;;4984323;28;20226;-72
2021/11/06 00:32:32;;;;;;;4.83;2.00;;;;;;;;;;4954227;28;20240;-72
2021/11/06 00:35:02;;;;;;;5.77;2.40;;;;;;;;;;4969041;28;20229;-70
2021/11/06 00:37:28;;;;;;;8.37;2.20;;;;;;;;;;4972411;28;20632;-71
2021/11/06 00:39:56;;;;;;;7.27;2.40;;;;;;;;;;4942911;28;20226;-72
2021/11/06 00:42:22;;;;;;;7.20;2.77;;;;;;;;;;4957894;28;20226;-72
2021/11/06 00:44:48;;;;;;;6.73;2.23;;;;;;;;;;4958853;28;20268;-71
2021/11/06 00:47:15;;;;;;;7.97;2.10;;;;;;;;;;4960654;28;20236;-73
2021/11/06 00:49:43;;;;;;;5.97;3.00;;;;;;;;;;4928917;28;20778;-73
2021/11/06 00:52:09;;;;;;;6.53;2.80;;;;;;;;;;4954397;28;20214;-73
2021/11/06 00:54:35;;;;;;;6.83;2.50;;;;;;;;;;4956749;29;20225;-73
2021/11/06 00:57:00;;;;;;;6.73;3.03;;;;;;;;;;4945999;28;20218;-72
2021/11/06 00:59:26;;;;;;;6.43;2.97;;;;;;;;;;4943822;28;20240;-73
2021/11/06 01:01:54;;;;;;;9.30;2.20;;;;;;;;;;4926201;28;20218;-73
2021/11/06 01:04:19;;;;;;;6.33;2.80;;;;;;;;;;4908747;29;20753;-72
2021/11/06 01:06:45;;;;;;;8.97;4.63;;;;;;;;;;4941821;28;20301;-72
2021/11/06 01:09:10;;;;;;;12.23;5.00;;;;;;;;;;4954121;29;20705;-72
2021/11/06 01:11:36;;;;;;;8.43;3.77;;;;;;;;;;4925066;29;20234;-73
2021/11/06 01:14:02;;;;;;;9.57;4.47;;;;;;;;;;4977088;28;20218;-73
2021/11/06 01:16:30;;;;;;;24.50;11.17;;;;;;;;;;4943754;28;20695;-71
2021/11/06 01:18:57;;;;;;;35.37;14.13;;;;;;;;;;4944533;28;20218;-73
2021/11/06 01:21:26;;;;;;;67.90;25.03;;;;;;;;;;4943913;28;20321;-73
2021/11/06 01:23:54;;;;;;;60.90;24.67;;;;;;;;;;4973263;28;20243;-72
2021/11/06 01:26:23;;;;;;;26.53;12.40;;;;;;;;;;4940350;28;20223;-72
2021/11/06 01:28:50;;;;;;;28.63;11.30;;;;;;;;;;4954900;28;20667;-72
2021/11/06 01:31:18;;;;;;;15.40;5.87;;;;;;;;;;4976883;28;20222;-72
2021/11/06 01:33:44;;;;;;;45.87;20.97;;;;;;;;;;4962548;28;20232;-72
2021/11/06 01:36:12;;;;;;;24.40;11.20;;;;;;;;;;4924175;28;20305;-73
2021/11/06 01:38:38;;;;;;;20.67;7.13;;;;;;;;;;4956721;28;20226;-72
2021/11/06 01:41:04;;;;;;;25.23;9.40;;;;;;;;;;4922802;29;20604;-72
2021/11/06 01:43:32;;;;;;;129.93;50.33;;;;;;;;;;4965716;28;20304;-72
2021/11/06 01:46:01;;;;;;;60.07;25.40;;;;;;;;;;4956488;28;20229;-72
2021/11/06 01:48:28;;;;;;;8.27;3.53;;;;;;;;;;4956810;28;20748;-72
2021/11/06 01:50:54;;;;;;;5.27;2.67;;;;;;;;;;4941484;28;20230;-72
2021/11/06 01:53:19;;;;;;;6.70;2.73;;;;;;;;;;4961216;28;20567;-71
2021/11/06 01:55:46;;;;;;;6.73;2.87;;;;;;;;;;4956503;28;20227;-72
2021/11/06 01:58:16;;;;;;;7.43;2.60;;;;;;;;;;4911965;28;20214;-72
2021/11/06 02:00:41;;;;;;;4.23;2.30;;;;;;;;;;4925687;28;20236;-72
2021/11/06 02:03:09;;;;;;;7.63;2.30;;;;;;;;;;4955935;28;20218;-72
2021/11/06 02:05:39;;;;;;;4.10;2.40;;;;;;;;;;4973893;28;20245;-72
2021/11/06 02:08:07;;;;;;;5.77;2.40;;;;;;;;;;4972604;28;20222;-73
2021/11/06 02:10:35;;;;;;;7.60;2.17;;;;;;;;;;4924082;29;20223;-71
2021/11/06 02:13:01;;;;;;;5.93;2.17;;;;;;;;;;4956127;28;20309;-71
2021/11/06 02:15:31;;;;;;;5.63;2.03;;;;;;;;;;4955824;28;20297;-73
2021/11/06 02:17:56;;;;;;;5.57;2.23;;;;;;;;;;4955036;28;20695;-73
2021/11/06 02:20:22;;;;;;;4.13;2.27;;;;;;;;;;4952333;28;20241;-74
2021/11/06 02:22:47;;;;;;;5.43;2.40;;;;;;;;;;4937641;29;20233;-71
2021/11/06 02:25:15;;;;;;;5.00;2.50;;;;;;;;;;4939841;28;20229;-72
2021/11/06 02:27:41;;;;;;;6.03;2.47;;;;;;;;;;4941198;28;20692;-71
2021/11/06 02:30:11;;;;;;;8.73;2.63;;;;;;;;;;4955734;28;20234;-72
2021/11/06 02:32:36;;;;;;;7.60;2.90;;;;;;;;;;4953590;28;20746;-72
2021/11/06 02:35:02;;;;;;;5.73;2.70;;;;;;;;;;4953195;28;20305;-73
2021/11/06 02:37:31;;;;;;;3.93;2.53;;;;;;;;;;4973188;28;20232;-73
2021/11/06 02:39:56;;;;;;;5.17;2.43;;;;;;;;;;4936592;28;20230;-72
2021/11/06 02:42:22;;;;;;;5.53;2.20;;;;;;;;;;4939899;28;20267;-73
2021/11/06 02:44:48;;;;;;;5.37;2.90;;;;;;;;;;4955550;28;20225;-73
2021/11/06 02:47:16;;;;;;;6.23;2.60;;;;;;;;;;4923951;28;20665;-73
2021/11/06 02:49:41;;;;;;;6.67;2.53;;;;;;;;;;4961629;28;20229;-73
2021/11/06 02:52:07;;;;;;;4.83;2.70;;;;;;;;;;4951862;28;20871;-72
2021/11/06 02:54:33;;;;;;;6.10;2.57;;;;;;;;;;4945129;28;20280;-73
2021/11/06 02:56:58;;;;;;;6.30;2.77;;;;;;;;;;4939499;28;20234;-73
2021/11/06 02:59:24;;;;;;;5.07;2.53;;;;;;;;;;4938899;28;20225;-73
2021/11/06 03:01:54;;;;;;;6.10;2.50;;;;;;;;;;4939715;28;20257;-73
2021/11/06 03:04:19;;;;;;;5.53;2.80;;;;;;;;;;4972753;28;20261;-73
2021/11/06 03:06:45;;;;;;;6.40;2.97;;;;;;;;;;4939951;28;20222;-72
2021/11/06 03:09:11;;;;;;;5.07;2.77;;;;;;;;;;4946706;28;20233;-72
2021/11/06 03:11:39;;;;;;;6.20;3.17;;;;;;;;;;4924399;28;20230;-72
2021/11/06 03:14:09;;;;;;;5.67;3.70;;;;;;;;;;4972234;28;20229;-72
2021/11/06 03:16:41;;;;;;;6.03;2.97;;;;;;;;;;4955395;28;20229;-73
2021/11/06 03:19:06;;;;;;;6.13;3.10;;;;;;;;;;4951593;28;20222;-72
2021/11/06 03:21:32;;;;;;;4.47;2.70;;;;;;;;;;4922528;29;20222;-73
2021/11/06 03:23:57;;;;;;;6.53;3.60;;;;;;;;;;4937187;28;20246;-72
2021/11/06 03:26:23;;;;;;;6.03;3.40;;;;;;;;;;4938360;28;20214;-73
2021/11/06 03:28:50;;;;;;;4.90;3.13;;;;;;;;;;4928316;28;20252;-72
2021/11/06 03:31:16;;;;;;;5.10;3.60;;;;;;;;;;4938910;28;20301;-73
2021/11/06 03:33:42;;;;;;;8.10;3.63;;;;;;;;;;4955416;28;20767;-74
2021/11/06 03:36:07;;;;;;;5.03;3.20;;;;;;;;;;4937911;28;20305;-74
2021/11/06 03:38:32;;;;;;;4.33;3.33;;;;;;;;;;4928490;28;20352;-72
2021/11/06 03:41:05;;;;;;;4.67;3.03;;;;;;;;;;4951694;28;20230;-73
2021/11/06 03:43:30;;;;;;;8.23;3.70;;;;;;;;;;4953052;28;20372;-73
2021/11/06 03:45:56;;;;;;;7.60;3.93;;;;;;;;;;4954574;28;20759;-73
2021/11/06 03:48:22;;;;;;;4.40;3.47;;;;;;;;;;4922618;28;20324;-72
2021/11/06 03:50:47;;;;;;;7.73;3.50;;;;;;;;;;4942189;28;20223;-73
2021/11/06 03:53:15;;;;;;;4.20;3.40;;;;;;;;;;4951208;29;20309;-74
2021/11/06 03:55:43;;;;;;;6.07;3.63;;;;;;;;;;4945108;28;20217;-73
2021/11/06 03:58:11;;;;;;;5.57;3.43;;;;;;;;;;4940014;28;20293;-72
2021/11/06 04:00:36;;;;;;;7.20;3.60;;;;;;;;;;4970521;28;20237;-72
2021/11/06 04:03:02;;;;;;;8.20;3.70;;;;;;;;;;4971460;28;20225;-74
2021/11/06 04:05:27;;;;;;;6.17;3.43;;;;;;;;;;4937948;28;20225;-72
2021/11/06 04:07:53;;;;;;;7.33;3.80;;;;;;;;;;4962262;28;20237;-72
2021/11/06 04:10:21;;;;;;;4.53;3.30;;;;;;;;;;4929519;28;20226;-72
2021/11/06 04:12:46;;;;;;;6.23;3.43;;;;;;;;;;4954584;28;20218;-73
2021/11/06 04:15:13;;;;;;;6.33;3.30;;;;;;;;;;4949085;28;20385;-73
2021/11/06 04:17:39;;;;;;;5.80;3.67;;;;;;;;;;4935186;29;20211;-72
2021/11/06 04:20:06;;;;;;;5.73;3.73;;;;;;;;;;4921556;28;20285;-72
2021/11/06 04:22:31;;;;;;;7.53;4.07;;;;;;;;;;4906875;28;20297;-72
2021/11/06 04:24:57;;;;;;;5.17;3.70;;;;;;;;;;4937240;28;20314;-73
2021/11/06 04:27:22;;;;;;;9.20;4.20;;;;;;;;;;4952230;29;20215;-73
2021/11/06 04:29:48;;;;;;;6.43;3.97;;;;;;;;;;4952292;28;20661;-73
2021/11/06 04:32:15;;;;;;;7.37;4.47;;;;;;;;;;4970051;28;20245;-72
2021/11/06 04:34:41;;;;;;;6.60;3.87;;;;;;;;;;4969894;28;20873;-72
2021/11/06 04:37:09;;;;;;;7.17;4.23;;;;;;;;;;4955926;28;20230;-72
2021/11/06 04:39:34;;;;;;;6.20;4.37;;;;;;;;;;4961888;28;20223;-72
2021/11/06 04:42:00;;;;;;;6.83;4.80;;;;;;;;;;4934397;28;20222;-72
2021/11/06 04:44:26;;;;;;;5.83;4.10;;;;;;;;;;4970918;28;20607;-72
2021/11/06 04:46:51;;;;;;;6.67;4.57;;;;;;;;;;4940870;29;20222;-71
2021/11/06 04:49:19;;;;;;;7.77;4.50;;;;;;;;;;4950182;28;20235;-72
2021/11/06 04:51:45;;;;;;;6.57;5.00;;;;;;;;;;4946405;28;20241;-72
2021/11/06 04:54:14;;;;;;;5.17;4.60;;;;;;;;;;4953630;28;20242;-73
2021/11/06 04:56:39;;;;;;;9.67;5.33;;;;;;;;;;4927778;29;20705;-73
2021/11/06 04:59:05;;;;;;;8.97;4.90;;;;;;;;;;4934529;28;20250;-72
2021/11/06 05:01:31;;;;;;;9.00;5.23;;;;;;;;;;4959273;28;20233;-73
2021/11/06 05:03:56;;;;;;;6.40;4.93;;;;;;;;;;4953867;28;20349;-73
2021/11/06 05:06:23;;;;;;;5.50;4.93;;;;;;;;;;4937270;28;20284;-73
2021/11/06 05:08:50;;;;;;;8.23;5.20;;;;;;;;;;4953003;28;20234;-72
2021/11/06 05:11:16;;;;;;;7.50;5.53;;;;;;;;;;4949054;28;20867;-72
2021/11/06 05:13:43;;;;;;;10.77;5.10;;;;;;;;;;4935198;29;20301;-73
2021/11/06 05:16:13;;;;;;;7.97;5.50;;;;;;;;;;4938619;28;20217;-72
2021/11/06 05:18:42;;;;;;;8.40;6.00;;;;;;;;;;4958132;28;20228;-73
2021/11/06 05:21:07;;;;;;;10.27;5.60;;;;;;;;;;4938033;28;20233;-72
2021/11/06 05:23:35;;;;;;;8.13;6.53;;;;;;;;;;4938383;29;20251;-72
2021/11/06 05:26:04;;;;;;;7.57;5.67;;;;;;;;;;4908608;28;20227;-72
2021/11/06 05:28:32;;;;;;;9.07;6.43;;;;;;;;;;4941071;28;20743;-72
2021/11/06 05:30:57;;;;;;;7.17;6.40;;;;;;;;;;4956723;28;20230;-72
2021/11/06 05:33:35;;;;;;;10.57;7.33;;;;;;;;;;4938016;29;20214;-72
2021/11/06 05:36:03;;;;;;;11.10;6.93;;;;;;;;;;4937776;28;20257;-73
2021/11/06 05:38:30;;;;;;;9.97;7.50;;;;;;;;;;4966060;28;20227;-72
2021/11/06 05:40:56;;;;;;;12.10;6.87;;;;;;;;;;4957307;28;20229;-72
2021/11/06 05:43:26;;;;;;;9.67;7.13;;;;;;;;;;4970667;28;20214;-72
2021/11/06 05:45:52;;;;;;;12.03;7.60;;;;;;;;;;4956480;28;20222;-72
2021/11/06 05:48:17;;;;;;;9.23;8.00;;;;;;;;;;4923810;28;20241;-73
2021/11/06 05:50:45;;;;;;;9.73;7.90;;;;;;;;;;4972140;28;20304;-72
2021/11/06 05:53:12;;;;;;;10.57;8.63;;;;;;;;;;4962527;28;20224;-72
2021/11/06 05:55:39;;;;;;;11.43;8.23;;;;;;;;;;4973555;28;20228;-71
2021/11/06 05:58:05;;;;;;;11.13;8.30;;;;;;;;;;4950214;29;20297;-72
2021/11/06 06:00:35;;;;;;;9.93;8.93;;;;;;;;;;4954624;28;20285;-73
2021/11/06 06:03:01;;;;;;;10.33;8.80;;;;;;;;;;4949963;28;20237;-72
2021/11/06 06:05:28;;;;;;;10.50;8.77;;;;;;;;;;4923808;28;20819;-72
2021/11/06 06:07:54;;;;;;;10.50;9.07;;;;;;;;;;4934675;29;20314;-72
2021/11/06 06:10:25;;;;;;;12.50;8.93;;;;;;;;;;4944199;28;20234;-73
2021/11/06 06:12:51;;;;;;;11.33;9.00;;;;;;;;;;4962764;28;20219;-73
2021/11/06 06:15:20;;;;;;;11.87;8.60;;;;;;;;;;4952627;29;20899;-72
2021/11/06 06:17:47;;;;;;;12.07;9.53;;;;;;;;;;4925919;28;20718;-71
2021/11/06 06:20:12;;;;;;;14.20;9.60;;;;;;;;;;4937450;28;20236;-72
2021/11/06 06:22:40;;;;;;;12.33;9.23;;;;;;;;;;4957301;28;20227;-72
2021/11/06 06:25:06;;;;;;;12.53;9.50;;;;;;;;;;4937162;28;20229;-72
2021/11/06 06:27:31;;;;;;;13.40;10.20;;;;;;;;;;4963944;28;20309;-71
2021/11/06 06:29:57;;;;;;;15.37;10.50;;;;;;;;;;4973009;28;20230;-72
2021/11/06 06:32:22;;;;;;;12.33;10.57;;;;;;;;;;4955042;28;20709;-73
2021/11/06 06:34:51;;;;;;;11.63;9.73;;;;;;;;;;4940056;28;20226;-73
2021/11/06 06:37:26;;;;;;;12.10;10.43;;;;;;;;;;4951325;28;20232;-73
2021/11/06 06:39:51;;;;;;;15.87;11.40;;;;;;;;;;4969116;28;20322;-72
2021/11/06 06:42:17;;;;;;;14.40;10.67;;;;;;;;;;4954486;28;20616;-71
2021/11/06 06:44:43;;;;;;;16.30;11.67;;;;;;;;;;4972250;28;20668;-72
2021/11/06 06:47:10;;;;;;;15.23;11.43;;;;;;;;;;4955894;28;20214;-72
2021/11/06 06:49:38;;;;;;;13.63;10.87;;;;;;;;;;4962920;28;20246;-72
2021/11/06 06:52:04;;;;;;;12.43;11.23;;;;;;;;;;4973147;28;20248;-72
2021/11/06 06:54:33;;;;;;;17.60;11.50;;;;;;;;;;4939731;28;20706;-72
2021/11/06 06:56:58;;;;;;;15.23;11.60;;;;;;;;;;4940546;28;20233;-72
2021/11/06 06:59:26;;;;;;;13.40;11.93;;;;;;;;;;4965654;28;20226;-72
2021/11/06 07:01:54;;;;;;;13.87;11.93;;;;;;;;;;4952832;28;20222;-73
2021/11/06 07:04:20;;;;;;;14.40;12.63;;;;;;;;;;4938377;28;20312;-73
2021/11/06 07:06:51;;;;;;;17.60;12.70;;;;;;;;;;4939646;28;20218;-72
2021/11/06 07:09:19;;;;;;;16.13;13.10;;;;;;;;;;4953954;28;20241;-73
2021/11/06 07:11:45;;;;;;;17.60;13.43;;;;;;;;;;4956062;28;20230;-72
2021/11/06 07:14:14;;;;;;;14.13;12.63;;;;;;;;;;4926877;29;20230;-72
2021/11/06 07:16:40;;;;;;;16.37;12.77;;;;;;;;;;4920760;28;20227;-73
2021/11/06 07:19:06;;;;;;;16.90;13.77;;;;;;;;;;4948145;28;20314;-73
2021/11/06 07:21:31;;;;;;;15.97;13.43;;;;;;;;;;4936635;28;20223;-73
2021/11/06 07:23:59;;;;;;;16.07;13.00;;;;;;;;;;4924101;28;20235;-73
2021/11/06 07:26:25;;;;;;;16.97;12.83;;;;;;;;;;4939211;28;20222;-72
2021/11/06 07:28:51;;;;;;;15.90;13.87;;;;;;;;;;4920639;28;20226;-72
2021/11/06 07:31:16;;;;;;;17.93;14.63;;;;;;;;;;4936419;28;20310;-74
2021/11/06 07:33:46;;;;;;;15.97;13.90;;;;;;;;;;4930690;29;20214;-73
2021/11/06 07:36:12;;;;;;;16.20;14.53;;;;;;;;;;4950772;28;20239;-72
2021/11/06 07:38:37;;;;;;;17.80;14.30;;;;;;;;;;4951398;28;20242;-72
2021/11/06 07:41:03;;;;;;;17.17;14.57;;;;;;;;;;4967212;28;20388;-73
2021/11/06 07:43:31;;;;;;;17.17;14.37;;;;;;;;;;4970994;28;20302;-71
2021/11/06 07:45:57;;;;;;;17.27;15.30;;;;;;;;;;4987979;28;20283;-72
2021/11/06 07:48:22;;;;;;;16.93;15.17;;;;;;;;;;4984727;28;20309;-72
2021/11/06 07:50:48;;;;;;;19.97;15.33;;;;;;;;;;4969284;28;20241;-72
2021/11/06 07:53:13;;;;;;;17.23;15.37;;;;;;;;;;4919848;28;20257;-72
2021/11/06 07:55:39;;;;;;;18.77;15.47;;;;;;;;;;4935699;28;20281;-73
2021/11/06 07:58:09;;;;;;;17.63;15.63;;;;;;;;;;4946899;28;20354;-72
2021/11/06 08:00:39;;;;;;;18.87;15.33;;;;;;;;;;4938498;29;20223;-73
2021/11/06 08:03:05;;;;;;;18.27;16.20;;;;;;;;;;4953454;29;20739;-74
2021/11/06 08:05:32;;;;;;;18.90;15.53;;;;;;;;;;4938049;28;20209;-72
2021/11/06 08:07:58;;;;;;;18.47;16.57;;;;;;;;;;4929346;28;20696;-71
2021/11/06 08:10:27;;;;;;;19.37;17.27;;;;;;;;;;4969894;28;20226;-72
2021/11/06 08:12:54;;;;;;;20.40;16.93;;;;;;;;;;4970552;28;20711;-73
2021/11/06 08:15:19;;;;;;;19.83;16.73;;;;;;;;;;4938113;28;20746;-74
2021/11/06 08:17:50;;;;;;;21.10;17.73;;;;;;;;;;4939174;28;20222;-73
2021/11/06 08:20:18;;;;;;;20.67;16.87;;;;;;;;;;4931844;29;20245;-73
2021/11/06 08:22:44;;;;;;;19.80;17.10;;;;;;;;;;4935757;29;20245;-73
2021/11/06 08:25:15;;;;;;;19.63;17.63;;;;;;;;;;4914069;28;20218;-72
2021/11/06 08:27:47;;;;;;;20.13;17.57;;;;;;;;;;4939527;28;20692;-72
2021/11/06 08:30:15;;;;;;;23.33;18.27;;;;;;;;;;4943524;28;20635;-73
2021/11/06 08:32:41;;;;;;;18.77;16.73;;;;;;;;;;4935500;29;20238;-73
2021/11/06 08:35:09;;;;;;;20.17;16.97;;;;;;;;;;4934534;28;20348;-73
2021/11/06 08:37:35;;;;;;;18.50;16.53;;;;;;;;;;4959384;28;20234;-71
2021/11/06 08:40:00;;;;;;;19.33;17.30;;;;;;;;;;4951250;28;20221;-70
2021/11/06 08:42:28;;;;;;;21.00;17.50;;;;;;;;;;4937614;28;20271;-71
2021/11/06 08:44:55;;;;;;;24.50;18.73;;;;;;;;;;4965330;28;20301;-71
2021/11/06 08:47:21;;;;;;;22.50;17.93;;;;;;;;;;4956977;28;20234;-71
2021/11/06 08:49:51;;;;;;;20.60;17.87;;;;;;;;;;4950878;28;20281;-71
2021/11/06 08:52:20;;;;;;;20.90;18.60;;;;;;;;;;4956092;28;20254;-71
2021/11/06 08:54:51;;;;;;;22.97;18.43;;;;;;;;;;4926336;28;20302;-71
2021/11/06 08:57:19;;;;;;;22.00;18.47;;;;;;;;;;4957710;28;20230;-70
2021/11/06 08:59:48;;;;;;;21.07;18.47;;;;;;;;;;4923415;29;20269;-70
2021/11/06 09:02:15;;;;;;;20.97;17.93;;;;;;;;;;4908782;28;20708;-71
2021/11/06 09:04:40;;;;;;;19.57;17.57;;;;;;;;;;4958694;28;20230;-70
2021/11/06 09:07:06;;;;;;;25.60;18.50;;;;;;;;;;4959044;28;20214;-71
2021/11/06 09:09:32;;;;;;;21.87;18.17;;;;;;;;;;4966605;28;20254;-70
2021/11/06 09:11:58;;;;;;;19.80;17.20;;;;;;;;;;4924944;28;20222;-70
2021/11/06 09:14:27;;;;;;;21.57;18.57;;;;;;;;;;4958847;28;20218;-72
2021/11/06 09:16:53;;;;;;;21.80;18.20;;;;;;;;;;4959344;28;20226;-72
2021/11/06 09:19:19;;;;;;;21.53;19.27;;;;;;;;;;4956670;28;20234;-71
2021/11/06 09:21:46;;;;;;;22.03;19.63;;;;;;;;;;4973118;28;20245;-73
2021/11/06 09:24:21;;;;;;;22.37;18.67;;;;;;;;;;4949487;28;20222;-71
2021/11/06 09:26:49;;;;;;;23.77;20.33;;;;;;;;;;4958936;28;20362;-71
2021/11/06 09:29:15;;;;;;;22.10;19.70;;;;;;;;;;4922181;29;20239;-71
2021/11/06 09:31:43;;;;;;;23.40;20.13;;;;;;;;;;4947814;28;20221;-71
2021/11/06 09:34:10;;;;;;;23.57;19.67;;;;;;;;;;4957013;28;20225;-71
2021/11/06 09:36:38;;;;;;;22.53;20.00;;;;;;;;;;4956518;28;20217;-73
2021/11/06 09:39:05;;;;;;;27.20;21.20;;;;;;;;;;4948954;28;20218;-74
2021/11/06 09:41:33;;;;;;;23.33;20.83;;;;;;;;;;4953987;29;20266;-71
2021/11/06 09:43:58;;;;;;;24.17;20.07;;;;;;;;;;4953257;29;20684;-74
2021/11/06 09:46:25;;;;;;;22.93;20.07;;;;;;;;;;4964640;28;20249;-72
2021/11/06 09:48:50;;;;;;;23.13;20.43;;;;;;;;;;4925304;28;20279;-70
2021/11/06 09:51:17;;;;;;;21.07;18.87;;;;;;;;;;4940315;28;20229;-72
2021/11/06 09:53:44;;;;;;;20.73;18.47;;;;;;;;;;4972073;28;20229;-72
2021/11/06 09:56:18;;;;;;;22.07;18.63;;;;;;;;;;4956473;28;20222;-70
2021/11/06 09:58:44;;;;;;;25.53;19.90;;;;;;;;;;4940248;28;20230;-71
2021/11/06 10:01:12;;;;;;;24.57;19.57;;;;;;;;;;4949364;28;20277;-71
2021/11/06 10:03:43;;;;;;;22.03;19.83;;;;;;;;;;4922211;29;20597;-72
2021/11/06 10:06:28;;;;;;;21.83;19.30;;;;;;;;;;4943431;28;20305;-71
2021/11/06 10:08:58;;;;;;;23.17;19.17;;;;;;;;;;4969510;28;20276;-71
2021/11/06 10:11:29;;;;;;;21.93;19.57;;;;;;;;;;4960416;28;20292;-70
2021/11/06 10:13:59;;;;;;;25.37;20.80;;;;;;;;;;4973129;28;20281;-71
2021/11/06 10:16:38;;;;;;;25.90;22.57;;;;;;;;;;4955604;28;20257;-73
2021/11/06 10:19:11;;;;;;;27.20;23.80;;;;;;;;;;4941514;28;20221;-72
2021/11/06 10:21:51;;;;;;;22.37;20.00;;;;;;;;;;4954813;28;20222;-72
2021/11/06 10:24:37;;;;;;;21.70;19.40;;;;;;;;;;4907192;29;20713;-71
2021/11/06 10:27:16;;;;;;;22.67;19.57;;;;;;;;;;4917941;28;20314;-71
2021/11/06 10:29:45;;;;;;;21.83;19.67;;;;;;;;;;4955540;28;20249;-73
2021/11/06 10:32:13;;;;;;;22.97;19.80;;;;;;;;;;4964646;28;20224;-71
2021/11/06 10:34:40;;;;;;;24.13;20.07;;;;;;;;;;4973556;28;20222;-70
2021/11/06 10:37:13;;;;;;;24.03;20.20;;;;;;;;;;4972848;28;20228;-72
2021/11/06 10:39:57;;;;;;;23.20;20.90;;;;;;;;;;4965597;28;20226;-71
2021/11/06 10:42:25;;;;;;;24.60;20.77;;;;;;;;;;4944979;29;20223;-71
2021/11/06 10:44:53;;;;;;;24.90;22.27;;;;;;;;;;4921803;29;20277;-71
2021/11/06 10:47:19;;;;;;;23.37;20.83;;;;;;;;;;4947120;28;20627;-73
2021/11/06 10:49:51;;;;;;;27.40;21.83;;;;;;;;;;4956482;28;20325;-72
2021/11/06 10:52:18;;;;;;;25.70;21.63;;;;;;;;;;4925662;28;20241;-71
2021/11/06 10:55:00;;;;;;;23.93;21.37;;;;;;;;;;4926042;28;20248;-72
2021/11/06 10:57:26;;;;;;;24.47;21.40;;;;;;;;;;4939694;28;20217;-72
2021/11/06 11:00:19;;;;;;;26.50;22.17;;;;;;;;;;4956756;28;20269;-72
2021/11/06 11:02:50;;;;;;;26.57;21.67;;;;;;;;;;4961576;28;20218;-71
2021/11/06 11:05:33;;;;;;;27.47;23.03;;;;;;;;;;4913533;28;20230;-72
2021/11/06 11:08:08;;;;;;;25.43;22.73;;;;;;;;;;4932172;28;20217;-71
2021/11/06 11:10:42;;;;;;;25.47;21.57;;;;;;;;;;4970190;28;20242;-71
2021/11/06 11:13:29;;;;;;;26.53;22.03;;;;;;;;;;4973332;28;20751;-72
2021/11/06 11:15:54;;;;;;;25.50;22.80;;;;;;;;;;4963986;28;20222;-73
2021/11/06 11:18:37;;;;;;;26.40;22.33;;;;;;;;;;4939321;28;20218;-73
2021/11/06 11:21:21;;;;;;;24.83;20.87;;;;;;;;;;4939672;28;20252;-73
2021/11/06 11:23:51;;;;;;;27.87;22.30;;;;;;;;;;4956362;28;20727;-73
2021/11/06 11:26:18;;;;;;;27.47;21.63;;;;;;;;;;4939677;28;20249;-71
2021/11/06 11:28:45;;;;;;;26.87;21.40;;;;;;;;;;4957130;28;20230;-73
2021/11/06 11:31:13;;;;;;;30.57;23.97;;;;;;;;;;4936589;29;20298;-71
2021/11/06 11:33:40;;;;;;;27.03;24.00;;;;;;;;;;4935447;28;20228;-72
2021/11/06 11:36:16;;;;;;;27.53;24.10;;;;;;;;;;4955667;28;20218;-71
2021/11/06 11:38:42;;;;;;;26.57;23.70;;;;;;;;;;4949907;28;20221;-73
2021/11/06 11:41:20;;;;;;;28.87;24.50;;;;;;;;;;4939472;28;20236;-73
2021/11/06 11:44:16;;;;;;;27.90;24.90;;;;;;;;;;4971327;28;20272;-74
2021/11/06 11:46:56;;;;;;;25.73;22.97;;;;;;;;;;4898560;29;20215;-73
2021/11/06 11:49:29;;;;;;;32.33;24.07;;;;;;;;;;4949588;28;20246;-73
2021/11/06 11:51:55;;;;;;;26.93;23.60;;;;;;;;;;4933144;28;20271;-74
2021/11/06 11:54:20;;;;;;;26.37;23.47;;;;;;;;;;4941613;28;20245;-73
2021/11/06 11:56:46;;;;;;;27.50;24.27;;;;;;;;;;4972014;28;20310;-73
2021/11/06 11:59:31;;;;;;;26.77;23.80;;;;;;;;;;4941949;28;20304;-73
2021/11/06 12:02:19;;;;;;;27.60;23.20;;;;;;;;;;4965611;28;20238;-73
2021/11/06 12:04:48;;;;;;;29.10;23.07;;;;;;;;;;4936488;29;20223;-73
2021/11/06 12:07:23;;;;;;;26.40;22.57;;;;;;;;;;4924697;28;20277;-74
2021/11/06 12:09:49;;;;;;;28.73;22.50;;;;;;;;;;4968558;28;20239;-73
2021/11/06 12:12:17;;;;;;;24.97;22.03;;;;;;;;;;4936755;28;20232;-73
2021/11/06 12:14:49;;;;;;;27.10;22.23;;;;;;;;;;4927256;28;20765;-72
2021/11/06 12:17:29;;;;;;;25.10;20.97;;;;;;;;;;4954019;28;20261;-73
2021/11/06 12:19:57;;;;;;;23.80;20.53;;;;;;;;;;4956359;28;20233;-73
2021/11/06 12:22:29;;;;;;;23.07;20.47;;;;;;;;;;4922473;28;20229;-74
2021/11/06 12:25:22;;;;;;;25.37;20.33;;;;;;;;;;4953978;28;20226;-73
2021/11/06 12:27:52;;;;;;;22.67;18.93;;;;;;;;;;4970687;28;20226;-73
2021/11/06 12:30:31;;;;;;;20.03;17.90;;;;;;;;;;4954254;28;20234;-73
2021/11/06 12:32:57;;;;;;;21.67;18.40;;;;;;;;;;4954256;28;20731;-73
2021/11/06 12:35:26;;;;;;;22.73;20.07;;;;;;;;;;4934837;29;20306;-72
2021/11/06 12:37:52;;;;;;;20.77;17.23;;;;;;;;;;4947547;28;20222;-72
2021/11/06 12:40:22;;;;;;;21.03;16.97;;;;;;;;;;4965656;28;20236;-73
2021/11/06 12:43:05;;;;;;;18.70;16.70;;;;;;;;;;4938605;28;20224;-73
2021/11/06 12:45:31;;;;;;;18.40;15.77;;;;;;;;;;4963099;28;20284;-72
2021/11/06 12:48:11;;;;;;;18.57;16.57;;;;;;;;;;4930572;28;20593;-74
2021/11/06 12:50:41;;;;;;;19.23;16.17;;;;;;;;;;4946186;28;20767;-73
2021/11/06 12:53:07;;;;;;;16.97;15.17;;;;;;;;;;4958303;28;20297;-73
2021/11/06 12:55:35;;;;;;;17.57;14.63;;;;;;;;;;4923713;28;20229;-74
2021/11/06 12:58:01;;;;;;;15.60;13.60;;;;;;;;;;4938822;28;20218;-75
2021/11/06 13:00:33;;;;;;;19.20;13.33;;;;;;;;;;4953536;28;20234;-74
2021/11/06 13:02:59;;;;;;;15.53;13.70;;;;;;;;;;4935326;29;20222;-74
2021/11/06 13:05:26;;;;;;;14.53;13.03;;;;;;;;;;4966578;28;20233;-75
2021/11/06 13:07:52;;;;;;;16.20;12.97;;;;;;;;;;4968798;28;20758;-74
2021/11/06 13:10:25;;;;;;;13.57;12.17;;;;;;;;;;4927708;29;20227;-73
2021/11/06 13:13:14;;;;;;;14.20;12.70;;;;;;;;;;4936695;28;20218;-73
2021/11/06 13:15:52;;;;;;;13.67;12.07;;;;;;;;;;4932523;28;20218;-73
2021/11/06 13:18:18;;;;;;;15.80;12.63;;;;;;;;;;4966218;28;20245;-72
2021/11/06 13:20:45;;;;;;;16.10;12.70;;;;;;;;;;4941307;28;20726;-72
2021/11/06 13:23:13;;;;;;;18.43;12.87;;;;;;;;;;4953763;28;20305;-72
2021/11/06 13:25:40;;;;;;;16.40;12.73;;;;;;;;;;4955499;28;20269;-74
2021/11/06 13:28:22;;;;;;;13.47;11.97;;;;;;;;;;4919741;29;20219;-72
2021/11/06 13:31:00;;;;;;;16.60;12.43;;;;;;;;;;4953430;28;20230;-73
2021/11/06 13:33:32;;;;;;;13.57;12.27;;;;;;;;;;4938377;28;20221;-74
2021/11/06 13:36:17;;;;;;;14.50;12.20;;;;;;;;;;4937659;28;20881;-73
2021/11/06 13:38:56;;;;;;;14.30;11.03;;;;;;;;;;4941753;28;20930;-74
2021/11/06 13:41:30;;;;;;;14.47;11.07;;;;;;;;;;4926945;28;20297;-74
2021/11/06 13:44:01;;;;;;;15.90;11.73;;;;;;;;;;4954550;29;20253;-74
2021/11/06 13:46:47;;;;;;;14.90;11.37;;;;;;;;;;4959443;28;20245;-75
2021/11/06 13:49:21;;;;;;;12.47;10.03;;;;;;;;;;4967822;28;20230;-73
2021/11/06 13:51:53;;;;;;;11.93;10.17;;;;;;;;;;4948560;28;20254;-75
2021/11/06 13:54:26;;;;;;;10.83;9.60;;;;;;;;;;4966553;28;20226;-74
2021/11/06 13:57:15;;;;;;;14.33;10.70;;;;;;;;;;4957635;28;20703;-73
2021/11/06 13:59:48;;;;;;;13.17;9.57;;;;;;;;;;4969251;28;20732;-74
2021/11/06 14:02:22;;;;;;;12.50;10.80;;;;;;;;;;4958601;28;20306;-73
2021/11/06 14:04:50;;;;;;;14.67;10.27;;;;;;;;;;4963083;28;20308;-74
2021/11/06 14:07:17;;;;;;;9.93;8.63;;;;;;;;;;4947376;29;20310;-75
2021/11/06 14:10:07;;;;;;;11.27;8.83;;;;;;;;;;4922395;28;20223;-74
2021/11/06 14:12:37;;;;;;;9.80;8.37;;;;;;;;;;4957923;28;20224;-74
2021/11/06 14:15:03;;;;;;;10.30;8.03;;;;;;;;;;4956287;28;20704;-73
2021/11/06 14:17:29;;;;;;;13.17;9.27;;;;;;;;;;4971472;28;20270;-74
2021/11/06 14:20:00;;;;;;;11.93;9.07;;;;;;;;;;4972579;28;20589;-73
2021/11/06 14:22:30;;;;;;;10.07;7.53;;;;;;;;;;4940227;28;20225;-73
2021/11/06 14:24:57;;;;;;;11.37;8.37;;;;;;;;;;4956890;28;20217;-74
2021/11/06 14:27:23;;;;;;;9.00;7.33;;;;;;;;;;4955952;28;20308;-74
2021/11/06 14:30:01;;;;;;;12.33;8.13;;;;;;;;;;4939779;28;20322;-74
2021/11/06 14:32:26;;;;;;;10.00;7.60;;;;;;;;;;4952489;29;20233;-74
2021/11/06 14:35:02;;;;;;;9.73;7.43;;;;;;;;;;4937284;28;20223;-74
2021/11/06 14:37:28;;;;;;;10.17;7.87;;;;;;;;;;4942080;28;20222;-74